sensor_id;sensor_type;location;lat;lon;timestamp;pressure;altitude;pressure_sealevel;temperature;humidity
18323;BME280;9287;49.456;11.064;2023-05-12T00:00:46;97984.00;;;10.81;100.00
18323;BME280;9287;49.456;11.064;2023-05-12T00:03:14;97988.41;;;10.70;100.00
18323;BME280;9287;49.456;11.064;2023-05-12T00:05:42;97987.44;;;10.78;100.00
18323;BME280;9287;49.456;11.064;2023-05-12T00:08:10;97987.44;;;10.78;100.00
18323;BME280;9287;49.456;11.064;2023-05-12T00:10:38;97986.84;;;10.69;100.00
18323;BME280;9287;49.456;11.064;2023-05-12T00:13:07;97990.00;;;10.71;100.00
18323;BME280;9287;49.456;11.064;2023-05-12T00:15:35;97981.38;;;10.69;100.00
18323;BME280;9287;49.456;11.064;2023-05-12T00:18:04;97986.03;;;10.53;100.00
18323;BME280;9287;49.456;11.064;2023-05-12T00:20:32;97979.50;;;10.57;100.00
18323;BME280;9287;49.456;11.064;2023-05-12T00:22:59;97982.78;;;10.63;100.00
18323;BME280;9287;49.456;11.064;2023-05-12T00:25:27;97989.38;;;10.62;100.00
18323;BME280;9287;49.456;11.064;2023-05-12T00:27:55;97986.66;;;10.62;100.00
18323;BME280;9287;49.456;11.064;2023-05-12T00:30:24;97978.72;;;10.57;100.00
18323;BME280;9287;49.456;11.064;2023-05-12T00:32:52;97981.03;;;10.55;100.00
18323;BME280;9287;49.456;11.064;2023-05-12T00:35:20;97987.53;;;10.66;100.00
18323;BME280;9287;49.456;11.064;2023-05-12T00:37:47;97983.66;;;10.67;100.00
18323;BME280;9287;49.456;11.064;2023-05-12T00:40:17;97976.72;;;10.69;100.00
18323;BME280;9287;49.456;11.064;2023-05-12T00:42:45;97976.63;;;10.66;100.00
18323;BME280;9287;49.456;11.064;2023-05-12T00:45:13;97981.38;;;10.69;100.00
18323;BME280;9287;49.456;11.064;2023-05-12T00:47:43;97977.31;;;10.63;100.00
18323;BME280;9287;49.456;11.064;2023-05-12T00:50:12;97973.44;;;10.64;100.00
18323;BME280;9287;49.456;11.064;2023-05-12T00:52:41;97978.19;;;10.67;100.00
18323;BME280;9287;49.456;11.064;2023-05-12T00:55:09;97979.78;;;10.68;100.00
18323;BME280;9287;49.456;11.064;2023-05-12T00:57:37;97973.53;;;10.67;100.00
18323;BME280;9287;49.456;11.064;2023-05-12T01:00:06;97971.94;;;10.66;100.00
18323;BME280;9287;49.456;11.064;2023-05-12T01:02:34;97969.75;;;10.72;100.00
18323;BME280;9287;49.456;11.064;2023-05-12T01:05:05;97976.06;;;10.76;100.00
18323;BME280;9287;49.456;11.064;2023-05-12T01:07:33;97970.44;;;10.69;100.00
18323;BME280;9287;49.456;11.064;2023-05-12T01:10:02;97973.34;;;10.60;100.00
18323;BME280;9287;49.456;11.064;2023-05-12T01:12:33;97973.63;;;10.71;100.00
18323;BME280;9287;49.456;11.064;2023-05-12T01:15:02;97968.16;;;10.71;100.00
18323;BME280;9287;49.456;11.064;2023-05-12T01:17:31;97968.88;;;10.68;100.00
18323;BME280;9287;49.456;11.064;2023-05-12T01:20:05;97965.00;;;10.69;100.00
18323;BME280;9287;49.456;11.064;2023-05-12T01:22:45;97965.69;;;10.66;100.00
18323;BME280;9287;49.456;11.064;2023-05-12T01:25:23;97969.75;;;10.72;100.00
18323;BME280;9287;49.456;11.064;2023-05-12T01:27:55;97962.34;;;10.72;100.00
18323;BME280;9287;49.456;11.064;2023-05-12T01:30:23;97964.28;;;10.72;100.00
18323;BME280;9287;49.456;11.064;2023-05-12T01:32:52;97966.72;;;10.77;100.00
18323;BME280;9287;49.456;11.064;2023-05-12T01:35:20;97966.72;;;10.77;100.00
18323;BME280;9287;49.456;11.064;2023-05-12T01:37:48;97963.16;;;10.73;100.00
18323;BME280;9287;49.456;11.064;2023-05-12T01:40:17;97961.97;;;10.74;100.00
18323;BME280;9287;49.456;11.064;2023-05-12T01:42:45;97966.56;;;10.70;100.00
18323;BME280;9287;49.456;11.064;2023-05-12T01:45:14;97961.81;;;10.67;100.00
18323;BME280;9287;49.456;11.064;2023-05-12T01:47:42;97959.63;;;10.72;100.00
18323;BME280;9287;49.456;11.064;2023-05-12T01:50:10;97965.00;;;10.69;100.00
18323;BME280;9287;49.456;11.064;2023-05-12T01:52:38;97964.09;;;10.65;100.00
18323;BME280;9287;49.456;11.064;2023-05-12T01:55:06;97965.69;;;10.66;100.00
18323;BME280;9287;49.456;11.064;2023-05-12T01:57:34;97965.00;;;10.69;100.00
18323;BME280;9287;49.456;11.064;2023-05-12T02:00:02;97961.03;;;10.66;100.00
18323;BME280;9287;49.456;11.064;2023-05-12T02:02:32;97955.56;;;10.66;100.00
18323;BME280;9287;49.456;11.064;2023-05-12T02:05:00;97960.03;;;10.59;100.00
18323;BME280;9287;49.456;11.064;2023-05-12T02:07:27;97965.50;;;10.59;100.00
18323;BME280;9287;49.456;11.064;2023-05-12T02:09:55;97960.94;;;10.63;100.00
18323;BME280;9287;49.456;11.064;2023-05-12T02:12:23;97951.59;;;10.64;100.00
18323;BME280;9287;49.456;11.064;2023-05-12T02:14:51;97956.16;;;10.60;100.00
18323;BME280;9287;49.456;11.064;2023-05-12T02:17:19;97961.03;;;10.66;100.00
18323;BME280;9287;49.456;11.064;2023-05-12T02:19:48;97964.00;;;10.61;100.00
18323;BME280;9287;49.456;11.064;2023-05-12T02:22:16;97958.44;;;10.58;100.00
18323;BME280;9287;49.456;11.064;2023-05-12T02:24:44;97957.06;;;10.64;100.00
18323;BME280;9287;49.456;11.064;2023-05-12T02:27:12;97951.50;;;10.60;100.00
18323;BME280;9287;49.456;11.064;2023-05-12T02:29:40;97961.38;;;10.65;100.00
18323;BME280;9287;49.456;11.064;2023-05-12T02:32:08;97958.84;;;10.56;100.00
18323;BME280;9287;49.456;11.064;2023-05-12T02:34:37;97953.44;;;10.60;100.00
18323;BME280;9287;49.456;11.064;2023-05-12T02:37:06;97957.06;;;10.64;100.00
18323;BME280;9287;49.456;11.064;2023-05-12T02:39:36;97950.44;;;10.65;100.00
18323;BME280;9287;49.456;11.064;2023-05-12T02:42:04;97954.84;;;10.69;100.00
18323;BME280;9287;49.456;11.064;2023-05-12T02:44:32;97948.31;;;10.58;100.00
18323;BME280;9287;49.456;11.064;2023-05-12T02:47:03;97956.88;;;10.57;100.00
18323;BME280;9287;49.456;11.064;2023-05-12T02:49:31;97952.28;;;10.61;100.00
18323;BME280;9287;49.456;11.064;2023-05-12T02:51:59;97956.88;;;10.57;100.00
18323;BME280;9287;49.456;11.064;2023-05-12T02:54:31;97952.91;;;10.70;100.00
18323;BME280;9287;49.456;11.064;2023-05-12T02:57:03;97947.91;;;10.72;100.00
18323;BME280;9287;49.456;11.064;2023-05-12T02:59:32;97949.31;;;10.66;100.00
18323;BME280;9287;49.456;11.064;2023-05-12T03:02:02;97951.34;;;10.69;100.00
18323;BME280;9287;49.456;11.064;2023-05-12T03:04:32;97939.97;;;10.67;100.00
18323;BME280;9287;49.456;11.064;2023-05-12T03:07:00;97938.19;;;10.59;100.00
18323;BME280;9287;49.456;11.064;2023-05-12T03:09:28;97939.97;;;10.67;100.00
18323;BME280;9287;49.456;11.064;2023-05-12T03:11:58;97945.88;;;10.69;100.00
18323;BME280;9287;49.456;11.064;2023-05-12T03:14:26;97943.94;;;10.69;100.00
18323;BME280;9287;49.456;11.064;2023-05-12T03:16:54;97944.88;;;10.77;100.00
18323;BME280;9287;49.456;11.064;2023-05-12T03:19:22;97942.25;;;10.65;100.00
18323;BME280;9287;49.456;11.064;2023-05-12T03:21:49;97937.50;;;10.62;100.00
18323;BME280;9287;49.456;11.064;2023-05-12T03:24:18;97939.25;;;10.70;100.00
18323;BME280;9287;49.456;11.064;2023-05-12T03:26:46;97940.06;;;10.70;100.00
18323;BME280;9287;49.456;11.064;2023-05-12T03:29:15;97934.50;;;10.67;100.00
18323;BME280;9287;49.456;11.064;2023-05-12T03:31:43;97938.13;;;10.71;100.00
18323;BME280;9287;49.456;11.064;2023-05-12T03:34:11;97951.78;;;10.71;100.00
18323;BME280;9287;49.456;11.064;2023-05-12T03:36:39;97939.25;;;10.70;100.00
18323;BME280;9287;49.456;11.064;2023-05-12T03:39:08;97941.47;;;10.64;100.00
18323;BME280;9287;49.456;11.064;2023-05-12T03:41:38;97939.97;;;10.67;100.00
18323;BME280;9287;49.456;11.064;2023-05-12T03:44:06;97939.97;;;10.67;100.00
18323;BME280;9287;49.456;11.064;2023-05-12T03:46:37;97940.13;;;10.74;100.00
18323;BME280;9287;49.456;11.064;2023-05-12T03:49:04;97935.53;;;10.78;100.00
18323;BME280;9287;49.456;11.064;2023-05-12T03:51:32;97934.25;;;10.72;100.00
18323;BME280;9287;49.456;11.064;2023-05-12T03:54:01;97931.34;;;10.65;100.00
18323;BME280;9287;49.456;11.064;2023-05-12T03:56:29;97932.84;;;10.62;100.00
18323;BME280;9287;49.456;11.064;2023-05-12T03:58:57;97935.31;;;10.67;100.00
18323;BME280;9287;49.456;11.064;2023-05-12T04:01:26;97942.69;;;10.67;100.00
18323;BME280;9287;49.456;11.064;2023-05-12T04:03:59;97935.66;;;10.66;100.00
18323;BME280;9287;49.456;11.064;2023-05-12T04:06:27;97934.31;;;10.60;100.00
18323;BME280;9287;49.456;11.064;2023-05-12T04:08:55;97947.09;;;10.71;100.00
18323;BME280;9287;49.456;11.064;2023-05-12T04:11:25;97941.56;;;10.68;100.00
18323;BME280;9287;49.456;11.064;2023-05-12T04:13:54;97944.19;;;10.64;100.00
18323;BME280;9287;49.456;11.064;2023-05-12T04:16:22;97938.38;;;10.66;100.00
18323;BME280;9287;49.456;11.064;2023-05-12T04:18:50;97948.75;;;10.76;100.00
18323;BME280;9287;49.456;11.064;2023-05-12T04:21:19;97943.16;;;10.69;100.00
18323;BME280;9287;49.456;11.064;2023-05-12T04:23:50;97946.56;;;10.66;100.00
18323;BME280;9287;49.456;11.064;2023-05-12T04:26:22;97940.84;;;10.71;100.00
18323;BME280;9287;49.456;11.064;2023-05-12T04:28:50;97943.28;;;10.76;100.00
18323;BME280;9287;49.456;11.064;2023-05-12T04:31:18;97956.25;;;10.79;100.00
18323;BME280;9287;49.456;11.064;2023-05-12T04:33:46;97949.63;;;10.80;100.00
18323;BME280;9287;49.456;11.064;2023-05-12T04:36:20;97955.66;;;10.70;100.00
18323;BME280;9287;49.456;11.064;2023-05-12T04:38:53;97952.72;;;10.78;100.00
18323;BME280;9287;49.456;11.064;2023-05-12T04:41:22;97950.19;;;10.70;100.00
18323;BME280;9287;49.456;11.064;2023-05-12T04:43:50;97956.69;;;10.65;100.00
18323;BME280;9287;49.456;11.064;2023-05-12T04:46:22;97957.94;;;10.68;100.00
18323;BME280;9287;49.456;11.064;2023-05-12T04:48:51;97965.78;;;10.69;100.00
18323;BME280;9287;49.456;11.064;2023-05-12T04:51:20;97958.28;;;10.82;100.00
18323;BME280;9287;49.456;11.064;2023-05-12T04:53:50;97955.22;;;10.68;100.00
18323;BME280;9287;49.456;11.064;2023-05-12T04:56:19;97956.34;;;10.67;100.00
18323;BME280;9287;49.456;11.064;2023-05-12T04:58:49;97954.94;;;10.73;100.00
18323;BME280;9287;49.456;11.064;2023-05-12T05:01:18;97960.75;;;10.87;100.00
18323;BME280;9287;49.456;11.064;2023-05-12T05:03:48;97956.44;;;10.86;100.00
18323;BME280;9287;49.456;11.064;2023-05-12T05:06:17;97965.75;;;11.01;100.00
18323;BME280;9287;49.456;11.064;2023-05-12T05:08:49;97958.38;;;10.86;100.00
18323;BME280;9287;49.456;11.064;2023-05-12T05:11:24;97962.84;;;10.78;100.00
18323;BME280;9287;49.456;11.064;2023-05-12T05:13:54;97968.50;;;10.85;100.00
18323;BME280;9287;49.456;11.064;2023-05-12T05:16:22;97971.75;;;10.91;100.00
18323;BME280;9287;49.456;11.064;2023-05-12T05:18:51;97976.59;;;10.97;100.00
18323;BME280;9287;49.456;11.064;2023-05-12T05:21:20;97968.38;;;10.97;100.00
18323;BME280;9287;49.456;11.064;2023-05-12T05:23:50;97969.28;;;10.86;100.00
18323;BME280;9287;49.456;11.064;2023-05-12T05:26:18;97975.09;;;11.00;100.00
18323;BME280;9287;49.456;11.064;2023-05-12T05:28:47;97983.03;;;11.05;100.00
18323;BME280;9287;49.456;11.064;2023-05-12T05:31:16;97979.75;;;10.99;100.00
18323;BME280;9287;49.456;11.064;2023-05-12T05:33:45;97973.59;;;11.02;100.00
18323;BME280;9287;49.456;11.064;2023-05-12T05:36:15;97976.19;;;11.14;100.00
18323;BME280;9287;49.456;11.064;2023-05-12T05:38:44;97971.63;;;11.19;100.00
18323;BME280;9287;49.456;11.064;2023-05-12T05:41:16;97975.66;;;11.25;100.00
18323;BME280;9287;49.456;11.064;2023-05-12T05:43:46;97974.88;;;11.24;100.00
18323;BME280;9287;49.456;11.064;2023-05-12T05:46:14;97975.00;;;11.31;100.00
18323;BME280;9287;49.456;11.064;2023-05-12T05:48:42;97979.63;;;11.11;100.00
18323;BME280;9287;49.456;11.064;2023-05-12T05:51:11;97986.44;;;11.18;100.00
18323;BME280;9287;49.456;11.064;2023-05-12T05:53:41;97978.50;;;11.12;100.00
18323;BME280;9287;49.456;11.064;2023-05-12T05:56:10;97991.31;;;11.28;100.00
18323;BME280;9287;49.456;11.064;2023-05-12T05:58:40;97987.03;;;11.11;100.00
18323;BME280;9287;49.456;11.064;2023-05-12T06:01:10;97991.75;;;11.30;100.00
18323;BME280;9287;49.456;11.064;2023-05-12T06:03:39;97985.53;;;11.13;100.00
18323;BME280;9287;49.456;11.064;2023-05-12T06:06:07;97992.06;;;11.25;100.00
18323;BME280;9287;49.456;11.064;2023-05-12T06:08:35;97999.03;;;11.22;100.00
18323;BME280;9287;49.456;11.064;2023-05-12T06:11:05;97995.28;;;11.30;100.00
18323;BME280;9287;49.456;11.064;2023-05-12T06:13:35;97994.66;;;11.37;100.00
18323;BME280;9287;49.456;11.064;2023-05-12T06:16:05;97995.84;;;11.55;100.00
18323;BME280;9287;49.456;11.064;2023-05-12T06:18:34;98002.97;;;11.40;100.00
18323;BME280;9287;49.456;11.064;2023-05-12T06:21:04;97999.06;;;11.61;100.00
18323;BME280;9287;49.456;11.064;2023-05-12T06:23:34;98000.84;;;11.34;100.00
18323;BME280;9287;49.456;11.064;2023-05-12T06:26:02;98006.63;;;11.48;100.00
18323;BME280;9287;49.456;11.064;2023-05-12T06:28:30;98005.34;;;11.42;100.00
18323;BME280;9287;49.456;11.064;2023-05-12T06:30:58;98017.34;;;11.37;100.00
18323;BME280;9287;49.456;11.064;2023-05-12T06:33:28;98014.63;;;11.57;100.00
18323;BME280;9287;49.456;11.064;2023-05-12T06:35:56;98010.69;;;11.54;100.00
18323;BME280;9287;49.456;11.064;2023-05-12T06:38:30;98020.72;;;11.50;100.00
18323;BME280;9287;49.456;11.064;2023-05-12T06:41:03;98015.97;;;11.47;100.00
18323;BME280;9287;49.456;11.064;2023-05-12T06:43:31;98024.63;;;11.49;100.00
18323;BME280;9287;49.456;11.064;2023-05-12T06:46:00;98021.88;;;11.49;100.00
18323;BME280;9287;49.456;11.064;2023-05-12T06:48:32;98023.03;;;11.48;100.00
18323;BME280;9287;49.456;11.064;2023-05-12T06:51:01;98027.06;;;11.54;100.00
18323;BME280;9287;49.456;11.064;2023-05-12T06:53:30;98027.06;;;11.54;100.00
18323;BME280;9287;49.456;11.064;2023-05-12T06:56:03;98018.66;;;11.63;100.00
18323;BME280;9287;49.456;11.064;2023-05-12T06:58:33;98020.16;;;11.60;100.00
18323;BME280;9287;49.456;11.064;2023-05-12T07:01:01;98017.88;;;11.62;100.00
18323;BME280;9287;49.456;11.064;2023-05-12T07:03:31;98025.78;;;11.67;100.00
18323;BME280;9287;49.456;11.064;2023-05-12T07:06:00;98017.31;;;11.72;100.00
18323;BME280;9287;49.456;11.064;2023-05-12T07:08:27;98030.56;;;11.70;100.00
18323;BME280;9287;49.456;11.064;2023-05-12T07:10:55;98025.97;;;11.74;100.00
18323;BME280;9287;49.456;11.064;2023-05-12T07:13:26;98032.31;;;11.78;100.00
18323;BME280;9287;49.456;11.064;2023-05-12T07:15:54;98031.97;;;11.64;100.00
18323;BME280;9287;49.456;11.064;2023-05-12T07:18:22;98032.16;;;11.71;100.00
18323;BME280;9287;49.456;11.064;2023-05-12T07:20:51;98033.03;;;11.75;100.00
18323;BME280;9287;49.456;11.064;2023-05-12T07:23:19;98032.31;;;11.78;100.00
18323;BME280;9287;49.456;11.064;2023-05-12T07:25:47;98028.50;;;11.83;100.00
18323;BME280;9287;49.456;11.064;2023-05-12T07:28:15;98028.66;;;11.90;100.00
18323;BME280;9287;49.456;11.064;2023-05-12T07:30:42;98027.53;;;11.75;100.00
18323;BME280;9287;49.456;11.064;2023-05-12T07:33:10;98037.94;;;11.85;100.00
18323;BME280;9287;49.456;11.064;2023-05-12T07:35:38;98033.03;;;11.75;100.00
18323;BME280;9287;49.456;11.064;2023-05-12T07:38:07;98031.50;;;11.78;100.00
18323;BME280;9287;49.456;11.064;2023-05-12T07:40:35;98027.53;;;11.75;100.00
18323;BME280;9287;49.456;11.064;2023-05-12T07:43:03;98040.25;;;11.83;100.00
18323;BME280;9287;49.456;11.064;2023-05-12T07:45:31;98030.53;;;11.86;100.00
18323;BME280;9287;49.456;11.064;2023-05-12T07:47:59;98031.09;;;11.95;100.00
18323;BME280;9287;49.456;11.064;2023-05-12T07:50:27;98034.63;;;12.15;100.00
18323;BME280;9287;49.456;11.064;2023-05-12T07:52:54;98032.31;;;12.36;100.00
18323;BME280;9287;49.456;11.064;2023-05-12T07:55:24;98034.91;;;12.29;100.00
18323;BME280;9287;49.456;11.064;2023-05-12T07:57:52;98040.50;;;12.36;100.00
18323;BME280;9287;49.456;11.064;2023-05-12T08:00:20;98040.50;;;12.55;100.00
18323;BME280;9287;49.456;11.064;2023-05-12T08:02:48;98047.91;;;12.55;100.00
18323;BME280;9287;49.456;11.064;2023-05-12T08:05:16;98047.75;;;12.48;100.00
18323;BME280;9287;49.456;11.064;2023-05-12T08:07:45;98043.09;;;12.48;100.00
18323;BME280;9287;49.456;11.064;2023-05-12T08:10:13;98047.72;;;12.44;100.00
18323;BME280;9287;49.456;11.064;2023-05-12T08:12:42;98048.63;;;12.29;100.00
18323;BME280;9287;49.456;11.064;2023-05-12T08:15:10;98050.56;;;12.29;100.00
18323;BME280;9287;49.456;11.064;2023-05-12T08:17:37;98044.84;;;12.37;100.00
18323;BME280;9287;49.456;11.064;2023-05-12T08:20:06;98047.72;;;12.44;100.00
18323;BME280;9287;49.456;11.064;2023-05-12T08:22:34;98051.72;;;12.50;100.00
18323;BME280;9287;49.456;11.064;2023-05-12T08:25:06;98047.97;;;12.59;100.00
18323;BME280;9287;49.456;11.064;2023-05-12T08:27:38;98046.72;;;12.33;100.00
18323;BME280;9287;49.456;11.064;2023-05-12T08:30:08;98047.84;;;12.51;100.00
18323;BME280;9287;49.456;11.064;2023-05-12T08:32:36;98055.00;;;12.79;100.00
18323;BME280;9287;49.456;11.064;2023-05-12T08:35:05;98057.31;;;12.77;100.00
18323;BME280;9287;49.456;11.064;2023-05-12T08:37:32;98059.66;;;13.01;100.00
18323;BME280;9287;49.456;11.064;2023-05-12T08:40:00;98054.69;;;12.84;100.00
18323;BME280;9287;49.456;11.064;2023-05-12T08:42:36;98057.06;;;12.63;100.00
18323;BME280;9287;49.456;11.064;2023-05-12T08:45:12;98056.91;;;12.55;100.00
18323;BME280;9287;49.456;11.064;2023-05-12T08:47:40;98061.31;;;12.60;100.00
18323;BME280;9287;49.456;11.064;2023-05-12T08:50:13;98060.13;;;12.38;100.00
18323;BME280;9287;49.456;11.064;2023-05-12T08:52:44;98059.25;;;12.34;100.00
18323;BME280;9287;49.456;11.064;2023-05-12T08:55:12;98059.97;;;12.31;100.00
18323;BME280;9287;49.456;11.064;2023-05-12T08:57:41;98060.84;;;12.35;100.00
18323;BME280;9287;49.456;11.064;2023-05-12T09:00:16;98066.22;;;12.51;100.00
18323;BME280;9287;49.456;11.064;2023-05-12T09:02:47;98070.38;;;12.64;100.00
18323;BME280;9287;49.456;11.064;2023-05-12T09:05:20;98071.31;;;12.72;100.00
18323;BME280;9287;49.456;11.064;2023-05-12T09:07:50;98075.78;;;12.80;100.00
18323;BME280;9287;49.456;11.064;2023-05-12T09:10:20;98067.38;;;12.92;100.00
18323;BME280;9287;49.456;11.064;2023-05-12T09:13:02;98080.88;;;13.04;100.00
18323;BME280;9287;49.456;11.064;2023-05-12T09:15:38;98076.22;;;13.28;100.00
18323;BME280;9287;49.456;11.064;2023-05-12T09:18:06;98075.91;;;13.33;100.00
18323;BME280;9287;49.456;11.064;2023-05-12T09:20:34;98079.59;;;13.44;100.00
18323;BME280;9287;49.456;11.064;2023-05-12T09:23:14;98082.00;;;13.22;100.00
18323;BME280;9287;49.456;11.064;2023-05-12T09:25:43;98079.56;;;13.17;100.00
18323;BME280;9287;49.456;11.064;2023-05-12T09:28:13;98085.81;;;13.18;100.00
18323;BME280;9287;49.456;11.064;2023-05-12T09:30:42;98086.59;;;13.15;100.00
18323;BME280;9287;49.456;11.064;2023-05-12T09:33:11;98083.69;;;13.31;100.00
18323;BME280;9287;49.456;11.064;2023-05-12T09:35:40;98077.59;;;13.41;100.00
18323;BME280;9287;49.456;11.064;2023-05-12T09:38:10;98077.19;;;13.65;100.00
18323;BME280;9287;49.456;11.064;2023-05-12T09:40:38;98078.97;;;13.80;100.00
18323;BME280;9287;49.456;11.064;2023-05-12T09:43:07;98081.78;;;14.47;100.00
18323;BME280;9287;49.456;11.064;2023-05-12T09:45:38;98085.38;;;14.51;100.00
18323;BME280;9287;49.456;11.064;2023-05-12T09:48:18;98076.94;;;14.71;100.00
18323;BME280;9287;49.456;11.064;2023-05-12T09:50:48;98085.63;;;14.76;100.00
18323;BME280;9287;49.456;11.064;2023-05-12T09:53:17;98075.97;;;14.52;100.00
18323;BME280;9287;49.456;11.064;2023-05-12T09:55:48;98074.28;;;14.44;100.00
18323;BME280;9287;49.456;11.064;2023-05-12T09:58:18;98079.25;;;14.02;100.00
18323;BME280;9287;49.456;11.064;2023-05-12T10:00:46;98079.59;;;14.30;100.00
18323;BME280;9287;49.456;11.064;2023-05-12T10:03:19;98080.88;;;14.70;100.00
18323;BME280;9287;49.456;11.064;2023-05-12T10:05:52;98078.19;;;15.24;100.00
18323;BME280;9287;49.456;11.064;2023-05-12T10:08:24;98068.44;;;15.85;100.00
18323;BME280;9287;49.456;11.064;2023-05-12T10:10:52;98067.44;;;15.53;100.00
18323;BME280;9287;49.456;11.064;2023-05-12T10:13:23;98074.13;;;15.04;100.00
18323;BME280;9287;49.456;11.064;2023-05-12T10:15:54;98077.34;;;15.13;100.00
18323;BME280;9287;49.456;11.064;2023-05-12T10:18:26;98060.63;;;14.92;100.00
18323;BME280;9287;49.456;11.064;2023-05-12T10:20:55;98072.72;;;14.43;100.00
18323;BME280;9287;49.456;11.064;2023-05-12T10:23:24;98074.53;;;14.66;100.00
18323;BME280;9287;49.456;11.064;2023-05-12T10:25:53;98063.41;;;14.51;100.00
18323;BME280;9287;49.456;11.064;2023-05-12T10:28:24;98065.34;;;14.21;100.00
18323;BME280;9287;49.456;11.064;2023-05-12T10:30:51;98070.03;;;14.17;100.00
18323;BME280;9287;49.456;11.064;2023-05-12T10:33:20;98070.78;;;14.14;100.00
18323;BME280;9287;49.456;11.064;2023-05-12T10:35:50;98078.31;;;13.90;100.00
18323;BME280;9287;49.456;11.064;2023-05-12T10:38:18;98072.06;;;13.93;100.00
18323;BME280;9287;49.456;11.064;2023-05-12T10:40:53;98067.44;;;13.71;100.00
18323;BME280;9287;49.456;11.064;2023-05-12T10:43:24;98077.44;;;13.83;100.00
18323;BME280;9287;49.456;11.064;2023-05-12T10:46:06;98081.75;;;13.84;100.00
18323;BME280;9287;49.456;11.064;2023-05-12T10:48:35;98077.38;;;13.79;100.00
18323;BME280;9287;49.456;11.064;2023-05-12T10:51:09;98090.22;;;14.02;100.00
18323;BME280;9287;49.456;11.064;2023-05-12T10:53:38;98088.66;;;14.01;100.00
18323;BME280;9287;49.456;11.064;2023-05-12T10:56:21;98084.97;;;14.19;100.00
18323;BME280;9287;49.456;11.064;2023-05-12T10:59:11;98080.25;;;14.20;100.00
18323;BME280;9287;49.456;11.064;2023-05-12T11:01:41;98086.19;;;14.55;100.00
18323;BME280;9287;49.456;11.064;2023-05-12T11:04:14;98089.94;;;14.40;100.00
18323;BME280;9287;49.456;11.064;2023-05-12T11:06:44;98090.88;;;14.51;100.00
18323;BME280;9287;49.456;11.064;2023-05-12T11:09:13;98086.13;;;14.48;100.00
18323;BME280;9287;49.456;11.064;2023-05-12T11:11:43;98086.66;;;14.31;100.00
18323;BME280;9287;49.456;11.064;2023-05-12T11:14:11;98092.22;;;14.38;100.00
18323;BME280;9287;49.456;11.064;2023-05-12T11:16:42;98077.31;;;14.36;100.00
18323;BME280;9287;49.456;11.064;2023-05-12T11:19:11;98088.59;;;14.60;100.00
18323;BME280;9287;49.456;11.064;2023-05-12T11:21:39;98091.78;;;14.62;100.00
18323;BME280;9287;49.456;11.064;2023-05-12T11:24:08;98094.13;;;14.01;100.00
18323;BME280;9287;49.456;11.064;2023-05-12T11:26:40;98092.69;;;14.10;100.00
18323;BME280;9287;49.456;11.064;2023-05-12T11:29:07;98101.47;;;14.23;100.00
18323;BME280;9287;49.456;11.064;2023-05-12T11:31:35;98100.38;;;13.98;100.00
18323;BME280;9287;49.456;11.064;2023-05-12T11:34:06;98102.69;;;13.96;100.00
18323;BME280;9287;49.456;11.064;2023-05-12T11:36:40;98100.72;;;13.96;100.00
18323;BME280;9287;49.456;11.064;2023-05-12T11:39:15;98098.84;;;14.00;100.00
18323;BME280;9287;49.456;11.064;2023-05-12T11:41:43;98097.09;;;13.88;100.00
18323;BME280;9287;49.456;11.064;2023-05-12T11:44:12;98101.53;;;13.44;100.00
18323;BME280;9287;49.456;11.064;2023-05-12T11:46:40;98099.44;;;13.60;100.00
18323;BME280;9287;49.456;11.064;2023-05-12T11:49:10;98100.97;;;13.35;100.00
18323;BME280;9287;49.456;11.064;2023-05-12T11:51:42;98100.19;;;13.11;100.00
18323;BME280;9287;49.456;11.064;2023-05-12T11:54:10;98105.50;;;13.23;100.00
18323;BME280;9287;49.456;11.064;2023-05-12T11:56:46;98098.06;;;13.47;100.00
18323;BME280;9287;49.456;11.064;2023-05-12T11:59:25;98103.56;;;13.47;100.00
18323;BME280;9287;49.456;11.064;2023-05-12T12:01:53;98105.41;;;13.66;100.00
18323;BME280;9287;49.456;11.064;2023-05-12T12:04:34;98109.03;;;14.00;100.00
18323;BME280;9287;49.456;11.064;2023-05-12T12:07:02;98104.69;;;13.72;100.00
18323;BME280;9287;49.456;11.064;2023-05-12T12:09:32;98106.41;;;13.80;100.00
18323;BME280;9287;49.456;11.064;2023-05-12T12:12:03;98114.16;;;14.05;100.00
18323;BME280;9287;49.456;11.064;2023-05-12T12:14:32;98110.63;;;14.04;100.00
18323;BME280;9287;49.456;11.064;2023-05-12T12:17:00;98113.34;;;13.74;100.00
18323;BME280;9287;49.456;11.064;2023-05-12T12:19:28;98119.91;;;13.92;100.00
18323;BME280;9287;49.456;11.064;2023-05-12T12:21:56;98116.03;;;13.97;100.00
18323;BME280;9287;49.456;11.064;2023-05-12T12:24:25;98127.44;;;13.73;100.00
18323;BME280;9287;49.456;11.064;2023-05-12T12:26:52;98125.59;;;13.54;100.00
18323;BME280;9287;49.456;11.064;2023-05-12T12:29:21;98129.94;;;13.81;100.00
18323;BME280;9287;49.456;11.064;2023-05-12T12:31:51;98138.38;;;13.69;100.00
18323;BME280;9287;49.456;11.064;2023-05-12T12:34:19;98129.81;;;13.74;100.00
18323;BME280;9287;49.456;11.064;2023-05-12T12:36:46;98134.66;;;13.58;100.00
18323;BME280;9287;49.456;11.064;2023-05-12T12:39:14;98136.75;;;13.65;100.00
18323;BME280;9287;49.456;11.064;2023-05-12T12:41:45;98132.38;;;13.37;100.00
18323;BME280;9287;49.456;11.064;2023-05-12T12:44:13;98127.38;;;13.69;100.00
18323;BME280;9287;49.456;11.064;2023-05-12T12:46:43;98140.81;;;13.74;100.00
18323;BME280;9287;49.456;11.064;2023-05-12T12:49:11;98139.72;;;13.56;100.00
18323;BME280;9287;49.456;11.064;2023-05-12T12:51:39;98139.41;;;13.87;100.00
18323;BME280;9287;49.456;11.064;2023-05-12T12:54:13;98140.38;;;13.99;100.00
18323;BME280;9287;49.456;11.064;2023-05-12T12:56:41;98138.69;;;13.90;100.00
18323;BME280;9287;49.456;11.064;2023-05-12T12:59:09;98136.25;;;13.85;100.00
18323;BME280;9287;49.456;11.064;2023-05-12T13:01:38;98141.97;;;14.00;100.00